createdAt,value
2022-10-23T00:03:11.452Z,8.17
2022-10-23T00:08:04.017Z,9.30
2022-10-23T00:12:56.578Z,9.53
2022-10-23T00:17:50.549Z,9.40
2022-10-23T00:22:43.200Z,10.27
2022-10-23T00:27:36.397Z,9.43
2022-10-23T00:32:29.057Z,9.37
2022-10-23T00:37:23.017Z,9.63
2022-10-23T00:42:17.118Z,9.97
2022-10-23T00:47:10.130Z,10.50
2022-10-23T00:52:04.385Z,9.67
2022-10-23T00:57:00.230Z,10.17
2022-10-23T01:01:52.898Z,9.40
2022-10-23T01:06:50.824Z,9.70
2022-10-23T01:11:48.446Z,9.13
2022-10-23T01:16:46.329Z,10.00
2022-10-23T01:21:42.845Z,9.37
2022-10-23T01:26:43.891Z,9.57
2022-10-23T01:31:44.717Z,10.83
2022-10-23T01:36:39.592Z,10.40
2022-10-23T01:41:36.610Z,10.80
2022-10-23T01:46:31.219Z,10.17
2022-10-23T01:51:28.298Z,10.60
2022-10-23T01:56:28.029Z,10.83
2022-10-23T02:01:22.512Z,11.63
2022-10-23T02:06:17.727Z,10.17
2022-10-23T02:11:13.830Z,9.83
2022-10-23T02:16:10.420Z,10.67
2022-10-23T02:21:05.825Z,10.57
2022-10-23T02:26:00.636Z,10.00
2022-10-23T02:30:55.882Z,10.20
2022-10-23T02:35:49.197Z,11.63
2022-10-23T02:40:49.055Z,11.40
2022-10-23T02:45:45.402Z,11.70
2022-10-23T02:50:43.988Z,11.60
2022-10-23T02:55:47.576Z,12.20
2022-10-23T03:00:43.678Z,10.63
2022-10-23T03:05:38.850Z,11.20
2022-10-23T03:10:33.005Z,11.03
2022-10-23T03:15:25.563Z,9.77
2022-10-23T03:20:18.260Z,10.20
2022-10-23T03:25:11.414Z,10.57
2022-10-23T03:30:06.082Z,9.83
2022-10-23T03:35:00.460Z,9.60
2022-10-23T03:39:53.310Z,10.27
2022-10-23T03:44:45.857Z,10.57
2022-10-23T03:49:39.957Z,11.97
2022-10-23T03:54:33.826Z,9.97
2022-10-23T03:59:26.421Z,9.90
2022-10-23T04:04:19.300Z,10.77
2022-10-23T04:14:12.371Z,9.70
2022-10-23T04:19:04.892Z,9.27
2022-10-23T04:23:57.441Z,9.10
2022-10-23T04:28:51.312Z,9.43
2022-10-23T04:33:43.883Z,10.00
2022-10-23T04:38:47.892Z,9.30
2022-10-23T04:43:40.566Z,9.70
2022-10-23T04:48:34.884Z,9.20
2022-10-23T04:53:59.863Z,9.57
2022-10-23T04:59:11.110Z,10.70
2022-10-23T05:04:07.073Z,10.90
2022-10-23T05:09:07.619Z,11.27
2022-10-23T05:14:22.792Z,10.40
2022-10-23T05:19:22.004Z,10.10
2022-10-23T05:24:16.776Z,9.03
2022-10-23T05:29:20.213Z,8.73
2022-10-23T05:34:13.601Z,7.47
2022-10-23T05:39:10.997Z,7.80
2022-10-23T05:44:03.795Z,7.13
2022-10-23T05:49:17.669Z,6.73
2022-10-23T05:54:33.722Z,6.07
2022-10-23T05:59:45.137Z,6.03
2022-10-23T06:04:48.681Z,5.43
2022-10-23T06:10:01.225Z,5.97
2022-10-23T06:14:53.797Z,5.33
2022-10-23T06:19:52.426Z,5.50
2022-10-23T06:24:46.236Z,6.00
2022-10-23T06:29:43.389Z,8.90
2022-10-23T06:34:35.916Z,9.90
2022-10-23T06:39:32.027Z,11.57
2022-10-23T06:44:39.337Z,9.13
2022-10-23T06:49:37.623Z,9.70
2022-10-23T06:54:31.527Z,10.00
2022-10-23T06:59:44.074Z,8.03
2022-10-23T07:04:40.044Z,8.40
2022-10-23T07:09:38.161Z,8.30
2022-10-23T07:14:44.316Z,9.43
2022-10-23T07:19:39.486Z,15.77
2022-10-23T07:24:38.530Z,9.07
2022-10-23T07:29:40.237Z,9.50
2022-10-23T07:34:33.368Z,7.20
2022-10-23T07:39:41.799Z,3.93
2022-10-23T07:44:34.344Z,6.63
2022-10-23T07:49:27.268Z,13.23
2022-10-23T07:54:19.889Z,6.83
2022-10-23T07:59:16.633Z,4.20
2022-10-23T08:04:15.609Z,4.67
2022-10-23T08:09:19.346Z,4.07
2022-10-23T08:14:13.484Z,3.73
2022-10-23T08:19:09.928Z,3.30
2022-10-23T08:24:06.101Z,3.00
2022-10-23T08:28:59.411Z,2.40
2022-10-23T08:33:52.653Z,2.20
2022-10-23T08:38:46.647Z,2.20
2022-10-23T08:43:47.750Z,1.77
2022-10-23T08:48:52.941Z,1.90
2022-10-23T08:54:12.414Z,1.97
2022-10-23T08:59:11.054Z,1.67
2022-10-23T09:04:04.393Z,2.00
2022-10-23T09:09:00.394Z,2.20
2022-10-23T09:14:10.921Z,2.00
2022-10-23T09:19:03.582Z,2.00
2022-10-23T09:23:56.146Z,2.00
2022-10-23T09:28:49.668Z,1.90
2022-10-23T09:33:54.059Z,2.00
2022-10-23T09:38:49.477Z,1.70
2022-10-23T09:43:42.044Z,2.10
2022-10-23T09:48:35.256Z,2.10
2022-10-23T09:53:33.885Z,2.07
2022-10-23T09:58:30.364Z,2.30
2022-10-23T10:03:23.787Z,2.23
2022-10-23T10:08:40.856Z,2.03
2022-10-23T10:13:46.181Z,1.93
2022-10-23T10:18:41.409Z,2.10
2022-10-23T10:23:38.828Z,1.70
2022-10-23T10:28:46.405Z,1.97
2022-10-23T10:33:44.608Z,1.87
2022-10-23T10:38:43.654Z,1.50
2022-10-23T10:43:37.978Z,2.10
2022-10-23T10:48:48.426Z,1.63
2022-10-23T10:54:15.058Z,2.00
2022-10-23T10:59:12.653Z,1.90
2022-10-23T11:04:07.588Z,1.80
2022-10-23T11:09:19.732Z,1.83
2022-10-23T11:14:17.640Z,1.80
2022-10-23T11:19:14.247Z,1.80
2022-10-23T11:24:23.093Z,1.83
2022-10-23T11:29:26.838Z,2.00
2022-10-23T11:34:28.012Z,1.70
2022-10-23T11:39:22.131Z,1.80
2022-10-23T11:44:25.808Z,1.70
2022-10-23T11:49:21.309Z,2.27
2022-10-23T11:54:26.048Z,2.50
2022-10-23T11:59:23.751Z,8.43
2022-10-23T12:04:21.326Z,11.90
2022-10-23T12:09:23.556Z,2.60
2022-10-23T12:14:33.753Z,2.20
2022-10-23T12:19:28.416Z,2.10
2022-10-23T12:24:44.919Z,2.17
2022-10-23T12:29:44.741Z,2.20
2022-10-23T12:34:44.603Z,2.40
2022-10-23T12:39:39.188Z,2.00
2022-10-23T12:44:31.776Z,2.20
2022-10-23T12:49:25.507Z,2.53
2022-10-23T12:54:20.345Z,2.40
2022-10-23T12:59:15.875Z,2.00
2022-10-23T13:04:12.551Z,2.10
2022-10-23T13:09:05.651Z,2.13
2022-10-23T13:14:13.977Z,2.03
2022-10-23T13:19:06.471Z,2.20
2022-10-23T13:23:59.037Z,2.40
2022-10-23T13:28:51.632Z,2.20
2022-10-23T13:33:46.401Z,2.33
2022-10-23T13:38:39.605Z,2.53
2022-10-23T13:43:34.950Z,2.70
2022-10-23T13:48:27.511Z,2.40
2022-10-23T13:53:21.425Z,2.90
2022-10-23T13:58:14.000Z,2.73
2022-10-23T14:03:06.531Z,2.03
2022-10-23T14:07:59.025Z,2.00
2022-10-23T14:12:54.864Z,2.50
2022-10-23T14:17:47.429Z,2.60
2022-10-23T14:22:39.971Z,2.47
2022-10-23T14:27:32.509Z,1.80
2022-10-23T14:32:26.377Z,5.90
2022-10-23T14:37:19.541Z,3.43
2022-10-23T14:42:12.086Z,4.13
2022-10-23T14:47:04.649Z,3.37
2022-10-23T14:51:58.502Z,2.67
2022-10-23T14:56:51.019Z,2.43
2022-10-23T15:01:47.231Z,2.50
2022-10-23T15:06:41.537Z,2.57
2022-10-23T15:11:35.366Z,2.40
2022-10-23T15:16:28.157Z,2.50
2022-10-23T15:21:20.728Z,2.50
2022-10-23T15:26:17.243Z,3.40
2022-10-23T15:36:26.749Z,2.80
2022-10-23T15:41:22.182Z,2.43
2022-10-23T15:46:14.707Z,2.60
2022-10-23T15:51:07.180Z,2.67
2022-10-23T15:56:00.981Z,2.53
2022-10-23T16:00:53.561Z,2.60
2022-10-23T16:05:46.150Z,2.70
2022-10-23T16:10:39.877Z,2.70
2022-10-23T16:15:35.744Z,2.87
2022-10-23T16:20:28.225Z,3.10
2022-10-23T16:25:20.790Z,3.80
2022-10-23T16:30:14.225Z,3.57
2022-10-23T16:35:12.247Z,3.27
2022-10-23T16:40:19.106Z,3.90
2022-10-23T16:45:33.278Z,6.50
2022-10-23T16:50:29.612Z,6.90
2022-10-23T16:55:22.123Z,5.90
2022-10-23T17:00:14.850Z,7.73
2022-10-23T17:05:07.524Z,10.40
2022-10-23T17:10:01.335Z,4.90
2022-10-23T17:14:53.784Z,3.90
2022-10-23T17:19:46.769Z,3.60
2022-10-23T17:24:39.515Z,3.80
2022-10-23T17:29:33.338Z,3.60
2022-10-23T17:34:26.245Z,4.13
2022-10-23T17:39:20.537Z,3.73
2022-10-23T17:44:13.114Z,3.50
2022-10-23T17:49:06.939Z,3.60
2022-10-23T17:54:05.704Z,4.20
2022-10-23T17:59:00.485Z,3.50
2022-10-23T18:03:53.452Z,5.17
2022-10-23T18:08:48.034Z,4.50
2022-10-23T18:13:40.483Z,4.60
2022-10-23T18:18:32.970Z,3.57
2022-10-23T18:23:25.514Z,3.20
2022-10-23T18:28:19.902Z,3.70
2022-10-23T18:33:12.438Z,3.40
2022-10-23T18:38:05.130Z,3.63
2022-10-23T18:42:57.673Z,3.73
2022-10-23T18:47:51.512Z,3.97
2022-10-23T18:52:43.978Z,3.70
2022-10-23T18:57:36.832Z,4.23
2022-10-23T19:02:29.532Z,3.83
2022-10-23T19:07:23.568Z,4.07
2022-10-23T19:12:17.270Z,4.30
2022-10-23T19:17:11.906Z,4.90
2022-10-23T19:22:04.985Z,4.37
2022-10-23T19:27:00.966Z,4.03
2022-10-23T19:31:53.628Z,4.00
2022-10-23T19:36:46.266Z,4.40
2022-10-23T19:41:38.787Z,4.73
2022-10-23T19:46:32.621Z,4.47
2022-10-23T19:51:25.121Z,4.03
2022-10-23T19:56:17.578Z,3.53
2022-10-23T20:01:11.769Z,4.07
2022-10-23T20:06:08.415Z,4.00
2022-10-23T20:11:00.867Z,3.73
2022-10-23T20:15:53.324Z,3.83
2022-10-23T20:20:45.832Z,3.70
2022-10-23T20:25:39.619Z,3.30
2022-10-23T20:30:32.502Z,4.00
2022-10-23T20:35:24.962Z,2.90
2022-10-23T20:40:17.497Z,3.03
2022-10-23T20:45:11.884Z,3.40
2022-10-23T20:50:04.880Z,3.20
2022-10-23T20:54:57.459Z,2.87
2022-10-23T20:59:49.939Z,2.77
2022-10-23T21:04:43.938Z,3.43
2022-10-23T21:09:37.747Z,2.93
2022-10-23T21:14:30.512Z,3.20
2022-10-23T21:19:23.121Z,2.27
2022-10-23T21:24:17.500Z,1.80
2022-10-23T21:29:18.398Z,1.80
2022-10-23T21:34:11.904Z,2.53
2022-10-23T21:39:05.172Z,1.70
2022-10-23T21:44:00.000Z,2.30
2022-10-23T21:48:52.729Z,2.10
2022-10-23T21:53:45.372Z,2.03
2022-10-23T21:58:37.963Z,1.97
2022-10-23T22:03:31.866Z,1.70
2022-10-23T22:08:24.389Z,2.23
2022-10-23T22:13:16.964Z,2.17
2022-10-23T22:18:09.453Z,2.70
2022-10-23T22:23:03.337Z,2.10
2022-10-23T22:27:55.870Z,2.10
2022-10-23T22:32:48.403Z,2.17
2022-10-23T22:37:41.005Z,2.20
2022-10-23T22:42:35.847Z,2.60
2022-10-23T22:47:29.973Z,2.77
2022-10-23T22:52:22.476Z,2.77
2022-10-23T22:57:15.020Z,2.23
2022-10-23T23:02:09.164Z,2.33
2022-10-23T23:07:01.685Z,2.30
2022-10-23T23:11:54.218Z,2.63
2022-10-23T23:16:46.752Z,2.53
2022-10-23T23:21:40.716Z,2.40
2022-10-23T23:26:33.326Z,2.67
2022-10-23T23:31:26.990Z,2.93
2022-10-23T23:36:20.312Z,3.13
2022-10-23T23:41:15.533Z,2.60
2022-10-23T23:46:08.026Z,2.97
2022-10-23T23:51:00.604Z,2.90
2022-10-23T23:55:53.203Z,3.07
